createdAt,value
2023-03-03T00:01:57.948Z,2.60
2023-03-03T00:04:25.337Z,2.59
2023-03-03T00:06:52.387Z,2.56
2023-03-03T00:09:19.726Z,2.52
2023-03-03T00:11:54.410Z,2.50
2023-03-03T00:14:33.488Z,2.47
2023-03-03T00:17:11.671Z,2.46
2023-03-03T00:19:41.352Z,2.42
2023-03-03T00:22:25.739Z,2.41
2023-03-03T00:24:53.447Z,2.40
2023-03-03T00:27:31.233Z,2.38
2023-03-03T00:30:01.035Z,2.34
2023-03-03T00:32:44.138Z,2.33
2023-03-03T00:35:35.688Z,2.31
2023-03-03T00:38:20.320Z,2.28
2023-03-03T00:40:48.522Z,2.28
2023-03-03T00:43:36.009Z,2.25
2023-03-03T00:46:03.570Z,2.28
2023-03-03T00:48:36.713Z,2.26
2023-03-03T00:51:23.521Z,2.27
2023-03-03T00:53:51.283Z,2.28
2023-03-03T00:56:18.605Z,2.22
2023-03-03T00:58:48.181Z,2.22
2023-03-03T01:01:17.980Z,2.22
2023-03-03T01:03:45.598Z,2.23
2023-03-03T01:06:13.516Z,2.24
2023-03-03T01:08:40.893Z,2.26
2023-03-03T01:11:22.733Z,2.28
2023-03-03T01:13:52.541Z,2.28
2023-03-03T01:16:20.820Z,2.32
2023-03-03T01:18:48.180Z,2.37
2023-03-03T01:21:15.332Z,2.40
2023-03-03T01:23:42.591Z,2.40
2023-03-03T01:26:09.791Z,2.42
2023-03-03T01:28:36.801Z,2.46
2023-03-03T01:31:06.257Z,2.48
2023-03-03T01:33:35.600Z,2.52
2023-03-03T01:36:04.160Z,2.52
2023-03-03T01:38:31.482Z,2.55
2023-03-03T01:41:00.158Z,2.55
2023-03-03T01:43:31.193Z,2.52
2023-03-03T01:45:58.387Z,2.51
2023-03-03T01:48:37.546Z,2.45
2023-03-03T01:51:23.809Z,2.37
2023-03-03T01:53:58.875Z,2.32
2023-03-03T01:56:26.984Z,2.29
2023-03-03T01:59:18.614Z,2.26
2023-03-03T02:01:48.661Z,2.23
2023-03-03T02:04:17.597Z,2.21
2023-03-03T02:06:52.686Z,2.17
2023-03-03T02:09:59.188Z,2.18
2023-03-03T02:12:48.530Z,2.20
2023-03-03T02:15:26.230Z,2.23
2023-03-03T02:17:57.543Z,2.23
2023-03-03T02:20:47.364Z,2.23
2023-03-03T02:23:31.101Z,2.27
2023-03-03T02:25:59.252Z,2.28
2023-03-03T02:28:33.272Z,2.30
2023-03-03T02:31:01.906Z,2.32
2023-03-03T02:33:29.764Z,2.41
2023-03-03T02:35:57.006Z,2.43
2023-03-03T02:39:04.092Z,2.45
2023-03-03T02:41:34.071Z,2.43
2023-03-03T02:44:13.412Z,2.45
2023-03-03T02:46:44.569Z,2.48
2023-03-03T02:49:16.933Z,2.50
2023-03-03T02:51:44.356Z,2.47
2023-03-03T02:54:13.629Z,2.46
2023-03-03T02:56:41.185Z,2.46
2023-03-03T02:59:08.805Z,2.45
2023-03-03T03:01:37.274Z,2.42
2023-03-03T03:04:14.207Z,2.37
2023-03-03T03:06:42.068Z,2.33
2023-03-03T03:09:11.199Z,2.29
2023-03-03T03:11:38.819Z,2.25
2023-03-03T03:14:08.175Z,2.28
2023-03-03T03:16:35.983Z,2.26
2023-03-03T03:19:04.787Z,2.23
2023-03-03T03:21:32.475Z,2.22
2023-03-03T03:24:00.513Z,2.21
2023-03-03T03:26:27.859Z,2.23
2023-03-03T03:28:55.141Z,2.23
2023-03-03T03:31:23.409Z,2.25
2023-03-03T03:33:50.509Z,2.26
2023-03-03T03:36:17.972Z,2.22
2023-03-03T03:38:45.705Z,2.18
2023-03-03T03:41:13.964Z,2.18
2023-03-03T03:43:41.658Z,2.20
2023-03-03T03:46:09.289Z,2.23
2023-03-03T03:48:36.674Z,2.28
2023-03-03T03:51:04.438Z,2.32
2023-03-03T03:53:32.133Z,2.29
2023-03-03T03:55:59.237Z,2.26
2023-03-03T03:58:26.511Z,2.27
2023-03-03T04:00:53.893Z,2.27
2023-03-03T04:03:21.096Z,2.28
2023-03-03T04:05:49.176Z,2.26
2023-03-03T04:08:16.437Z,2.26
2023-03-03T04:10:43.730Z,2.25
2023-03-03T04:13:10.856Z,2.27
2023-03-03T04:15:38.223Z,2.27
2023-03-03T04:18:05.496Z,2.28
2023-03-03T04:20:32.528Z,2.26
2023-03-03T04:22:59.686Z,2.24
2023-03-03T04:25:27.012Z,2.24
2023-03-03T04:27:54.464Z,2.26
2023-03-03T04:30:21.832Z,2.30
2023-03-03T04:32:49.737Z,2.31
2023-03-03T04:35:17.203Z,2.29
2023-03-03T04:37:44.557Z,2.26
2023-03-03T04:40:12.481Z,2.25
2023-03-03T04:42:39.622Z,2.28
2023-03-03T04:45:07.689Z,2.25
2023-03-03T04:47:35.017Z,2.24
2023-03-03T04:50:02.161Z,2.23
2023-03-03T04:52:29.688Z,2.20
2023-03-03T04:54:57.235Z,2.21
2023-03-03T04:57:24.551Z,2.17
2023-03-03T04:59:51.651Z,2.15
2023-03-03T05:02:19.061Z,2.18
2023-03-03T05:04:46.324Z,2.17
2023-03-03T05:07:13.796Z,2.20
2023-03-03T05:09:40.992Z,2.24
2023-03-03T05:12:08.580Z,2.20
2023-03-03T05:14:35.728Z,2.18
2023-03-03T05:17:04.695Z,2.19
2023-03-03T05:19:31.968Z,2.20
2023-03-03T05:21:58.925Z,2.18
2023-03-03T05:24:26.317Z,2.17
2023-03-03T05:26:53.675Z,2.17
2023-03-03T05:29:20.705Z,2.17
2023-03-03T05:31:47.840Z,2.18
2023-03-03T05:34:15.301Z,2.20
2023-03-03T05:36:42.646Z,2.23
2023-03-03T05:39:09.644Z,2.23
2023-03-03T05:41:37.131Z,2.22
2023-03-03T05:44:04.733Z,2.21
2023-03-03T05:46:32.048Z,2.20
2023-03-03T05:48:59.910Z,2.17
2023-03-03T05:51:27.077Z,2.18
2023-03-03T05:53:56.380Z,2.20
2023-03-03T05:56:23.574Z,2.19
2023-03-03T05:58:50.749Z,2.20
2023-03-03T06:01:17.903Z,2.21
2023-03-03T06:03:45.045Z,2.21
2023-03-03T06:06:14.127Z,2.25
2023-03-03T06:08:41.116Z,2.26
2023-03-03T06:11:08.627Z,2.28
2023-03-03T06:13:35.777Z,2.28
2023-03-03T06:16:02.952Z,2.31
2023-03-03T06:18:30.230Z,2.32
2023-03-03T06:20:57.611Z,2.33
2023-03-03T06:23:24.787Z,2.35
2023-03-03T06:25:53.048Z,2.36
2023-03-03T06:28:20.650Z,2.36
2023-03-03T06:30:48.063Z,2.37
2023-03-03T06:33:15.249Z,2.39
2023-03-03T06:35:42.351Z,2.43
2023-03-03T06:38:09.449Z,2.45
2023-03-03T06:40:36.659Z,2.46
2023-03-03T06:43:06.735Z,2.51
2023-03-03T06:45:34.107Z,2.54
2023-03-03T06:48:02.060Z,2.54
2023-03-03T06:50:29.081Z,2.57
2023-03-03T06:53:16.353Z,2.61
2023-03-03T06:55:45.096Z,2.64
2023-03-03T06:58:16.220Z,2.67
2023-03-03T07:00:49.960Z,2.68
2023-03-03T07:03:34.223Z,2.71
2023-03-03T07:06:06.500Z,2.74
2023-03-03T07:08:33.954Z,2.77
2023-03-03T07:11:09.406Z,2.81
2023-03-03T07:13:40.702Z,2.84
2023-03-03T07:16:13.708Z,2.90
2023-03-03T07:18:55.377Z,2.94
2023-03-03T07:21:36.789Z,2.99
2023-03-03T07:24:33.265Z,3.04
2023-03-03T07:27:15.237Z,3.10
2023-03-03T07:29:42.629Z,3.15
2023-03-03T07:32:42.781Z,3.21
2023-03-03T07:35:44.853Z,3.26
2023-03-03T07:38:42.233Z,3.33
2023-03-03T07:41:20.962Z,3.36
2023-03-03T07:44:06.788Z,3.42
2023-03-03T07:46:48.318Z,3.42
2023-03-03T07:49:36.013Z,3.45
2023-03-03T07:52:28.617Z,3.51
2023-03-03T07:55:00.477Z,3.56
2023-03-03T07:57:39.830Z,3.64
2023-03-03T08:00:18.704Z,3.70
2023-03-03T08:02:52.141Z,3.73
2023-03-03T08:05:26.597Z,3.81
2023-03-03T08:07:59.429Z,3.85
2023-03-03T08:10:53.248Z,3.89
2023-03-03T08:13:38.063Z,3.94
2023-03-03T08:16:11.236Z,3.99
2023-03-03T08:18:49.420Z,4.02
2023-03-03T08:21:26.337Z,4.05
2023-03-03T08:23:54.349Z,4.11
2023-03-03T08:26:23.589Z,4.20
2023-03-03T08:28:51.760Z,4.24
2023-03-03T08:31:34.343Z,4.28
2023-03-03T08:34:06.220Z,4.34
2023-03-03T08:36:34.822Z,4.34
2023-03-03T08:39:05.068Z,4.40
2023-03-03T08:41:32.382Z,4.43
2023-03-03T08:43:59.451Z,4.49
2023-03-03T08:46:26.879Z,4.55
2023-03-03T08:48:54.050Z,4.62
2023-03-03T08:51:21.326Z,4.66
2023-03-03T08:53:48.291Z,4.73
2023-03-03T08:56:15.403Z,4.78
2023-03-03T08:59:01.204Z,4.86
2023-03-03T09:01:33.065Z,4.89
2023-03-03T09:04:00.627Z,4.93
2023-03-03T09:06:28.329Z,4.93
2023-03-03T09:08:56.032Z,4.93
2023-03-03T09:11:27.906Z,4.96
2023-03-03T09:14:15.565Z,4.95
2023-03-03T09:16:53.859Z,5.04
2023-03-03T09:19:37.453Z,5.18
2023-03-03T09:22:26.036Z,5.27
2023-03-03T09:24:59.544Z,5.31
2023-03-03T09:27:36.771Z,5.35
2023-03-03T09:30:39.678Z,5.41
2023-03-03T09:33:42.300Z,5.46
2023-03-03T09:36:24.723Z,5.49
2023-03-03T09:38:53.088Z,5.57
2023-03-03T09:41:44.461Z,5.73
2023-03-03T09:44:33.502Z,5.93
2023-03-03T09:47:29.312Z,6.08
2023-03-03T09:50:02.921Z,6.19
2023-03-03T09:53:08.747Z,6.36
2023-03-03T09:56:00.565Z,6.51
2023-03-03T09:58:45.721Z,6.66
2023-03-03T10:01:24.764Z,6.81
2023-03-03T10:04:16.449Z,6.90
2023-03-03T10:06:53.502Z,6.97
2023-03-03T10:09:45.362Z,7.03
2023-03-03T10:12:29.097Z,7.14
2023-03-03T10:15:18.631Z,7.22
2023-03-03T10:17:59.086Z,7.31
2023-03-03T10:20:51.158Z,7.43
2023-03-03T10:23:34.632Z,7.64
2023-03-03T10:26:43.500Z,7.76
2023-03-03T10:29:42.562Z,7.91
2023-03-03T10:32:38.708Z,7.97
2023-03-03T10:36:06.295Z,8.11
2023-03-03T10:39:06.487Z,8.27
2023-03-03T10:41:48.495Z,8.37
2023-03-03T10:44:45.162Z,8.45
2023-03-03T10:47:27.365Z,8.47
2023-03-03T10:50:26.365Z,8.46
2023-03-03T10:53:29.549Z,8.46
2023-03-03T10:56:18.021Z,8.52
2023-03-03T10:59:21.823Z,8.57
2023-03-03T11:02:59.534Z,8.57
2023-03-03T11:06:07.130Z,8.64
2023-03-03T11:08:57.628Z,8.77
2023-03-03T11:11:53.470Z,8.88
2023-03-03T11:14:47.643Z,8.81
2023-03-03T11:17:27.655Z,8.73
2023-03-03T11:20:28.686Z,8.73
2023-03-03T11:23:18.474Z,8.66
2023-03-03T11:26:09.342Z,8.62
2023-03-03T11:29:24.448Z,8.34
2023-03-03T11:32:32.343Z,8.09
2023-03-03T11:35:22.561Z,7.92
2023-03-03T11:38:20.893Z,8.08
2023-03-03T11:41:17.061Z,8.08
2023-03-03T11:43:51.663Z,8.08
2023-03-03T11:46:43.946Z,8.21
2023-03-03T11:49:26.209Z,8.36
2023-03-03T11:52:01.919Z,8.59
2023-03-03T11:55:12.508Z,8.93
2023-03-03T11:57:46.890Z,9.11
2023-03-03T12:00:22.809Z,9.19
2023-03-03T12:03:10.981Z,9.30
2023-03-03T12:05:41.084Z,9.40
2023-03-03T12:08:48.171Z,9.55
2023-03-03T12:11:54.336Z,9.71
2023-03-03T12:14:34.501Z,9.56
2023-03-03T12:17:08.794Z,9.63
2023-03-03T12:20:22.796Z,9.44
2023-03-03T12:23:09.271Z,9.08
2023-03-03T12:26:06.462Z,8.77
2023-03-03T12:28:45.332Z,8.71
2023-03-03T12:31:36.926Z,8.79
2023-03-03T12:34:40.285Z,8.80
2023-03-03T12:37:45.311Z,8.79
2023-03-03T12:40:30.680Z,8.81
2023-03-03T12:43:30.874Z,8.93
2023-03-03T12:46:36.238Z,9.12
2023-03-03T12:49:03.450Z,9.35
2023-03-03T12:51:48.747Z,9.53
2023-03-03T12:54:39.682Z,9.29
2023-03-03T12:57:36.658Z,9.06
2023-03-03T13:00:41.388Z,8.90
2023-03-03T13:03:28.383Z,9.16
2023-03-03T13:06:27.434Z,9.42
2023-03-03T13:09:31.556Z,9.55
2023-03-03T13:12:27.731Z,9.39
2023-03-03T13:15:17.225Z,9.28
2023-03-03T13:18:05.874Z,9.23
2023-03-03T13:21:09.464Z,9.01
2023-03-03T13:23:53.191Z,8.83
2023-03-03T13:26:37.206Z,8.80
2023-03-03T13:29:30.578Z,8.94
2023-03-03T13:32:09.495Z,9.04
2023-03-03T13:35:01.932Z,9.12
2023-03-03T13:37:59.310Z,9.16
2023-03-03T13:40:34.057Z,9.16
2023-03-03T13:43:17.182Z,9.17
2023-03-03T13:46:18.602Z,9.11
2023-03-03T13:49:20.888Z,9.12
2023-03-03T13:52:09.897Z,9.11
2023-03-03T13:54:45.008Z,9.14
2023-03-03T13:57:38.548Z,9.11
2023-03-03T14:01:01.425Z,9.06
2023-03-03T14:03:44.850Z,9.06
2023-03-03T14:06:21.763Z,9.07
2023-03-03T14:09:24.005Z,9.07
2023-03-03T14:12:02.681Z,9.09
2023-03-03T14:15:09.806Z,9.11
2023-03-03T14:18:06.392Z,9.12
2023-03-03T14:20:54.270Z,9.11
2023-03-03T14:23:57.372Z,9.14
2023-03-03T14:26:25.013Z,9.20
2023-03-03T14:29:19.236Z,9.25
2023-03-03T14:31:46.527Z,9.28
2023-03-03T14:34:38.956Z,9.37
2023-03-03T14:37:25.327Z,9.45
2023-03-03T14:40:07.194Z,9.55
2023-03-03T14:42:57.874Z,9.47
2023-03-03T14:45:39.031Z,9.43
2023-03-03T14:48:27.362Z,9.53
2023-03-03T14:51:23.985Z,9.68
2023-03-03T14:53:52.949Z,9.82
2023-03-03T14:57:05.681Z,9.82
2023-03-03T14:59:33.351Z,9.78
2023-03-03T15:02:31.243Z,9.76
2023-03-03T15:05:34.030Z,9.69
2023-03-03T15:08:09.020Z,9.71
2023-03-03T15:10:40.508Z,9.78
2023-03-03T15:13:19.395Z,10.01
2023-03-03T15:15:53.219Z,10.11
2023-03-03T15:18:20.979Z,10.18
2023-03-03T15:21:10.625Z,10.24
2023-03-03T15:23:49.611Z,10.25
2023-03-03T15:26:34.085Z,10.26
2023-03-03T15:29:28.173Z,10.28
2023-03-03T15:32:36.661Z,10.26
2023-03-03T15:35:47.712Z,10.20
2023-03-03T15:38:39.764Z,10.11
2023-03-03T15:41:15.745Z,10.06
2023-03-03T15:44:19.966Z,10.02
2023-03-03T15:47:05.344Z,9.93
2023-03-03T15:50:07.016Z,9.82
2023-03-03T15:52:52.003Z,9.79
2023-03-03T15:55:19.342Z,9.76
2023-03-03T15:57:49.311Z,9.75
2023-03-03T16:00:37.075Z,9.75
2023-03-03T16:03:30.968Z,9.74
2023-03-03T16:06:13.518Z,9.74
2023-03-03T16:09:13.921Z,9.73
2023-03-03T16:12:12.352Z,9.78
2023-03-03T16:15:00.796Z,9.81
2023-03-03T16:17:58.599Z,9.83
2023-03-03T16:21:17.943Z,9.82
2023-03-03T16:24:00.907Z,9.75
2023-03-03T16:26:52.396Z,9.71
2023-03-03T16:29:56.243Z,9.63
2023-03-03T16:33:09.685Z,9.55
2023-03-03T16:36:20.304Z,9.45
2023-03-03T16:39:20.673Z,9.41
2023-03-03T16:42:02.298Z,9.38
2023-03-03T16:44:58.363Z,9.26
2023-03-03T16:47:49.823Z,9.18
2023-03-03T16:50:35.299Z,9.11
2023-03-03T16:53:38.910Z,9.04
2023-03-03T16:56:11.265Z,8.99
2023-03-03T16:59:12.039Z,8.93
2023-03-03T17:01:58.889Z,8.87
2023-03-03T17:05:12.720Z,8.81
2023-03-03T17:08:22.394Z,8.73
2023-03-03T17:11:11.598Z,8.68
2023-03-03T17:13:54.574Z,8.63
2023-03-03T17:17:09.912Z,8.59
2023-03-03T17:20:01.064Z,8.56
2023-03-03T17:23:07.775Z,8.52
2023-03-03T17:26:17.785Z,8.50
2023-03-03T17:29:41.786Z,8.45
2023-03-03T17:32:24.823Z,8.40
2023-03-03T17:35:03.909Z,8.38
2023-03-03T17:37:52.408Z,8.37
2023-03-03T17:40:41.237Z,8.38
2023-03-03T17:43:47.849Z,8.35
2023-03-03T17:46:37.002Z,8.31
2023-03-03T17:49:22.690Z,8.30
2023-03-03T17:52:24.729Z,8.28
2023-03-03T17:55:33.678Z,8.26
2023-03-03T17:58:22.638Z,8.24
2023-03-03T18:01:11.854Z,8.21
2023-03-03T18:04:09.657Z,8.16
2023-03-03T18:07:24.329Z,8.12
2023-03-03T18:10:36.753Z,8.11
2023-03-03T18:13:52.158Z,8.07
2023-03-03T18:16:55.847Z,8.11
2023-03-03T18:19:37.718Z,8.09
2023-03-03T18:22:18.291Z,8.06
2023-03-03T18:24:51.264Z,8.04
2023-03-03T18:27:24.373Z,8.02
2023-03-03T18:30:22.221Z,8.01
2023-03-03T18:33:01.321Z,7.99
2023-03-03T18:35:38.474Z,7.96
2023-03-03T18:38:17.991Z,7.94
2023-03-03T18:40:53.168Z,7.93
2023-03-03T18:43:45.600Z,7.87
2023-03-03T18:46:24.540Z,7.88
2023-03-03T18:49:10.467Z,7.86
2023-03-03T18:51:40.902Z,7.76
2023-03-03T18:54:21.934Z,7.73
2023-03-03T18:56:57.915Z,7.71
2023-03-03T18:59:31.319Z,7.67
2023-03-03T19:02:39.113Z,7.62
2023-03-03T19:05:11.211Z,7.56
2023-03-03T19:07:41.099Z,7.52
2023-03-03T19:10:20.295Z,7.46
2023-03-03T19:13:00.537Z,7.43
2023-03-03T19:15:35.426Z,7.43
2023-03-03T19:18:22.167Z,7.39
2023-03-03T19:21:04.434Z,7.35
2023-03-03T19:24:00.226Z,7.32
2023-03-03T19:26:30.365Z,7.30
2023-03-03T19:29:28.421Z,7.29
2023-03-03T19:32:31.305Z,7.27
2023-03-03T19:35:26.264Z,7.24
2023-03-03T19:38:09.005Z,7.19
2023-03-03T19:41:00.621Z,7.17
2023-03-03T19:43:43.199Z,7.16
2023-03-03T19:46:45.611Z,7.14
2023-03-03T19:49:39.144Z,7.14
2023-03-03T19:52:38.461Z,7.14
2023-03-03T19:55:20.832Z,7.13
2023-03-03T19:58:42.382Z,7.14
2023-03-03T20:01:41.430Z,7.16
2023-03-03T20:04:38.525Z,7.17
2023-03-03T20:07:39.578Z,7.15
2023-03-03T20:11:04.347Z,7.17
2023-03-03T20:14:05.827Z,7.15
2023-03-03T20:16:41.903Z,7.16
2023-03-03T20:19:56.188Z,7.17
2023-03-03T20:22:38.160Z,7.17
2023-03-03T20:25:24.906Z,7.17
2023-03-03T20:28:39.580Z,7.17
2023-03-03T20:31:27.247Z,7.17
2023-03-03T20:34:06.195Z,7.16
2023-03-03T20:36:57.785Z,7.18
2023-03-03T20:40:01.181Z,7.17
2023-03-03T20:43:08.983Z,7.16
2023-03-03T20:45:56.454Z,7.14
2023-03-03T20:49:04.127Z,7.13
2023-03-03T20:52:01.987Z,7.13
2023-03-03T20:54:56.108Z,7.13
2023-03-03T20:58:00.809Z,7.12
2023-03-03T21:00:51.113Z,7.10
2023-03-03T21:03:41.911Z,7.10
2023-03-03T21:06:19.139Z,7.09
2023-03-03T21:08:56.248Z,7.10
2023-03-03T21:11:30.615Z,7.09
2023-03-03T21:13:59.549Z,7.09
2023-03-03T21:16:26.631Z,7.10
2023-03-03T21:19:10.003Z,7.09
2023-03-03T21:21:43.133Z,7.10
2023-03-03T21:24:15.304Z,7.10
2023-03-03T21:26:50.233Z,7.07
2023-03-03T21:29:25.649Z,7.06
2023-03-03T21:31:59.976Z,7.02
2023-03-03T21:34:31.468Z,7.02
2023-03-03T21:37:02.088Z,7.01
2023-03-03T21:39:34.504Z,6.99
2023-03-03T21:42:14.741Z,6.97
2023-03-03T21:44:49.913Z,6.97
2023-03-03T21:47:23.427Z,6.97
2023-03-03T21:49:52.156Z,6.94
2023-03-03T21:52:22.444Z,6.93
2023-03-03T21:54:51.637Z,6.94
2023-03-03T21:57:19.271Z,6.93
2023-03-03T21:59:47.720Z,6.94
2023-03-03T22:02:14.962Z,6.92
2023-03-03T22:04:42.378Z,6.91
2023-03-03T22:07:10.648Z,6.90
2023-03-03T22:09:38.455Z,6.91
2023-03-03T22:12:07.122Z,6.90
2023-03-03T22:14:34.476Z,6.88
2023-03-03T22:17:01.733Z,6.90
2023-03-03T22:19:28.990Z,6.88
2023-03-03T22:21:56.253Z,6.87
2023-03-03T22:24:23.562Z,6.90
2023-03-03T22:26:50.809Z,6.89
2023-03-03T22:29:22.852Z,6.89
2023-03-03T22:31:51.720Z,6.89
2023-03-03T22:34:18.988Z,6.91
2023-03-03T22:36:46.145Z,6.90
2023-03-03T22:39:13.608Z,6.90
2023-03-03T22:41:40.746Z,6.92
2023-03-03T22:44:07.908Z,6.91
2023-03-03T22:46:34.992Z,6.91
2023-03-03T22:49:02.012Z,6.90
2023-03-03T22:51:29.188Z,6.91
2023-03-03T22:53:56.264Z,6.90
2023-03-03T22:56:23.468Z,6.93
2023-03-03T22:58:50.614Z,6.92
2023-03-03T23:01:17.700Z,6.93
2023-03-03T23:03:44.894Z,6.92
2023-03-03T23:06:11.914Z,6.91
2023-03-03T23:08:39.060Z,6.94
2023-03-03T23:11:06.373Z,6.93
2023-03-03T23:13:35.274Z,6.93
2023-03-03T23:16:03.248Z,6.92
2023-03-03T23:18:30.715Z,6.95
2023-03-03T23:20:57.833Z,6.94
2023-03-03T23:23:25.005Z,6.95
2023-03-03T23:25:52.315Z,6.96
2023-03-03T23:28:19.639Z,6.95
2023-03-03T23:30:47.060Z,6.96
2023-03-03T23:33:14.902Z,6.97
2023-03-03T23:35:42.214Z,6.97
2023-03-03T23:38:15.320Z,6.98
2023-03-03T23:40:44.205Z,6.97
2023-03-03T23:43:11.254Z,6.98
2023-03-03T23:45:38.467Z,6.99
2023-03-03T23:48:06.331Z,6.99
2023-03-03T23:50:37.179Z,6.98
2023-03-03T23:53:06.661Z,6.99
2023-03-03T23:55:34.473Z,6.98
2023-03-03T23:58:01.678Z,6.96
